Time;durP1;ratioP1;P1;durP2;ratioP2;P2;SDS_P1;SDS_P2;PMS_P1;PMS_P2;Temp;Humidity;BMP_temperature;BMP_pressure;BME280_temperature;BME280_humidity;BME280_pressure;Samples;Min_cycle;Max_cycle;Signal;HPM_P1;HPM_P2
2024/01/08 06:02:06;;;;;;;7.57;3.67;;;-0.30;68.30;;;;;;4126244;23;20054;-80
2024/01/08 06:04:07;;;;;;;6.75;3.85;;;-0.30;68.00;;;;;;4099983;29;20051;-80
2024/01/08 06:06:12;;;;;;;5.82;3.45;;;-0.30;67.70;;;;;;4100268;29;20047;-78
2024/01/08 06:08:13;;;;;;;6.57;3.58;;;-0.30;68.00;;;;;;4100152;29;20448;-78
2024/01/08 06:10:15;;;;;;;6.28;3.78;;;-0.30;68.10;;;;;;4099772;29;20051;-77
2024/01/08 06:12:18;;;;;;;6.97;3.90;;;-0.30;68.20;;;;;;4100146;29;20103;-78
2024/01/08 06:14:20;;;;;;;7.50;3.75;;;-0.30;67.70;;;;;;4099639;29;20460;-78
2024/01/08 06:16:22;;;;;;;7.57;3.60;;;-0.30;67.50;;;;;;4101411;28;20527;-80
2024/01/08 06:18:27;;;;;;;6.15;3.60;;;-0.30;67.70;;;;;;4103149;29;20134;-77
2024/01/08 06:20:28;;;;;;;6.22;3.58;;;-0.30;67.00;;;;;;4103105;29;20055;-76
2024/01/08 06:22:29;;;;;;;7.25;3.90;;;-0.30;67.30;;;;;;4102950;29;20051;-78
2024/01/08 06:24:32;;;;;;;7.07;3.92;;;-0.30;67.30;;;;;;4103106;29;20110;-78
2024/01/08 06:26:33;;;;;;;6.45;4.03;;;-0.30;67.80;;;;;;4102967;29;20091;-78
2024/01/08 06:28:35;;;;;;;6.28;3.80;;;-0.30;67.70;;;;;;4102932;29;20049;-78
2024/01/08 06:30:37;;;;;;;8.05;4.28;;;-0.30;67.80;;;;;;4103064;29;20051;-79
2024/01/08 06:32:38;;;;;;;9.32;4.00;;;-0.20;67.70;;;;;;4102552;29;20047;-79
2024/01/08 06:34:42;;;;;;;6.63;3.72;;;-0.20;68.20;;;;;;4102585;29;20485;-77
2024/01/08 06:36:44;;;;;;;7.32;4.03;;;-0.20;67.70;;;;;;4102798;29;20098;-80
2024/01/08 06:38:47;;;;;;;7.88;4.47;;;-0.30;67.50;;;;;;4102860;29;20382;-78
2024/01/08 06:40:48;;;;;;;6.43;4.07;;;-0.30;67.30;;;;;;4102758;29;20413;-78
2024/01/08 06:42:50;;;;;;;7.07;4.07;;;-0.20;68.10;;;;;;4102932;29;20047;-79
2024/01/08 06:44:52;;;;;;;7.57;3.90;;;-0.20;68.10;;;;;;4102503;29;20106;-79
2024/01/08 06:46:54;;;;;;;7.07;4.03;;;-0.20;67.90;;;;;;4102676;29;20493;-79
2024/01/08 06:48:56;;;;;;;8.00;4.28;;;-0.30;67.40;;;;;;4102660;29;20138;-79
2024/01/08 06:51:00;;;;;;;6.85;3.83;;;-0.30;67.10;;;;;;4102677;29;20051;-79
2024/01/08 06:53:02;;;;;;;7.30;4.03;;;-0.30;67.20;;;;;;4102943;29;20103;-78
2024/01/08 06:55:06;;;;;;;7.07;3.78;;;-0.30;67.20;;;;;;4102708;29;20055;-78
2024/01/08 06:57:07;;;;;;;7.57;4.25;;;-0.30;67.10;;;;;;4102619;29;20047;-79
2024/01/08 06:59:09;;;;;;;6.82;4.22;;;-0.30;68.40;;;;;;4102638;29;20134;-78
2024/01/08 07:01:10;;;;;;;7.35;4.35;;;-0.30;68.20;;;;;;4102774;29;20063;-78
2024/01/08 07:03:11;;;;;;;8.10;4.25;;;-0.30;67.70;;;;;;4102751;29;20094;-79
2024/01/08 07:05:14;;;;;;;7.38;4.43;;;-0.30;68.10;;;;;;4102069;29;20051;-80
2024/01/08 07:07:17;;;;;;;7.18;3.90;;;-0.40;67.40;;;;;;4101992;29;20499;-79
2024/01/08 07:09:19;;;;;;;7.75;4.00;;;-0.40;67.80;;;;;;4102162;29;20043;-78
2024/01/08 07:11:21;;;;;;;7.30;3.95;;;-0.40;68.10;;;;;;4102109;29;20051;-77
2024/01/08 07:13:23;;;;;;;6.70;4.20;;;-0.30;68.00;;;;;;4102172;29;20052;-81
2024/01/08 07:15:43;;;;;;;8.68;4.00;;;-0.40;68.00;;;;;;4102026;29;20548;-79
2024/01/08 07:17:45;;;;;;;7.45;4.43;;;-0.40;68.60;;;;;;4102200;29;20500;-79
2024/01/08 07:19:45;;;;;;;7.82;4.10;;;-0.30;68.50;;;;;;4102074;29;20118;-79
2024/01/08 07:21:47;;;;;;;7.90;4.45;;;-0.30;68.50;;;;;;4101988;29;20051;-77
2024/01/08 07:23:51;;;;;;;7.95;4.40;;;-0.30;68.50;;;;;;4101933;29;20051;-75
2024/01/08 07:25:53;;;;;;;7.15;4.28;;;-0.30;68.20;;;;;;4101838;29;20051;-80
2024/01/08 07:27:54;;;;;;;7.18;4.22;;;-0.30;68.60;;;;;;4101543;28;20441;-77
2024/01/08 07:29:56;;;;;;;9.60;5.07;;;-0.30;69.40;;;;;;4101879;29;20074;-77
2024/01/08 07:31:59;;;;;;;9.50;5.13;;;-0.30;68.40;;;;;;4101729;29;20110;-78
2024/01/08 07:34:00;;;;;;;6.88;4.28;;;-0.30;68.60;;;;;;4101856;29;20054;-79
2024/01/08 07:36:02;;;;;;;8.15;4.60;;;-0.30;69.10;;;;;;4101926;29;20062;-79
2024/01/08 07:38:03;;;;;;;8.00;5.28;;;-0.20;68.80;;;;;;4101725;29;20055;-80
2024/01/08 07:40:09;;;;;;;8.30;4.57;;;-0.20;68.30;;;;;;4101745;29;20114;-77
2024/01/08 07:42:11;;;;;;;7.50;4.60;;;-0.30;68.40;;;;;;4101811;29;20051;-76
2024/01/08 07:44:14;;;;;;;10.10;5.00;;;-0.20;68.90;;;;;;4101789;29;20457;-80
2024/01/08 07:46:17;;;;;;;7.32;4.30;;;-0.30;68.50;;;;;;4101576;29;20082;-78
2024/01/08 07:48:19;;;;;;;7.43;4.63;;;-0.20;68.80;;;;;;4101619;29;20390;-79
2024/01/08 07:50:20;;;;;;;7.10;4.53;;;-0.20;68.60;;;;;;4101521;29;20142;-79
2024/01/08 07:52:22;;;;;;;8.13;4.78;;;-0.20;68.40;;;;;;4101794;29;20055;-80
2024/01/08 07:54:23;;;;;;;7.45;4.53;;;-0.20;68.40;;;;;;4101279;29;20087;-78
2024/01/08 07:56:27;;;;;;;10.10;4.93;;;-0.20;68.70;;;;;;4101485;29;20051;-80
2024/01/08 07:58:28;;;;;;;7.30;4.40;;;-0.20;68.00;;;;;;4101114;29;20051;-80
2024/01/08 08:00:30;;;;;;;7.78;4.55;;;-0.30;68.00;;;;;;4101051;29;20511;-79
2024/01/08 08:02:32;;;;;;;7.50;4.28;;;-0.30;68.50;;;;;;4100986;29;20055;-80
2024/01/08 08:04:34;;;;;;;8.50;4.80;;;-0.30;67.90;;;;;;4101261;29;20552;-78
2024/01/08 08:06:36;;;;;;;8.15;4.72;;;-0.30;68.20;;;;;;4101387;29;20051;-78
2024/01/08 08:08:37;;;;;;;7.93;4.63;;;-0.20;68.30;;;;;;4101168;29;20055;-80
2024/01/08 08:10:39;;;;;;;7.65;4.20;;;-0.20;67.50;;;;;;4101300;29;20047;-78
2024/01/08 08:12:42;;;;;;;7.47;4.60;;;-0.20;67.80;;;;;;4101046;29;20043;-80
2024/01/08 08:14:43;;;;;;;9.13;4.63;;;-0.20;68.40;;;;;;4101311;29;20051;-79
2024/01/08 08:16:45;;;;;;;8.32;4.35;;;-0.20;68.20;;;;;;4101009;29;20055;-79
2024/01/08 08:18:47;;;;;;;7.68;4.55;;;-0.20;68.80;;;;;;4101309;29;20130;-78
2024/01/08 08:20:50;;;;;;;8.02;4.68;;;-0.20;68.50;;;;;;4101077;29;20050;-79
2024/01/08 08:22:52;;;;;;;7.05;4.32;;;-0.20;68.60;;;;;;4101061;29;20101;-79
2024/01/08 08:24:53;;;;;;;8.85;4.93;;;-0.20;68.40;;;;;;4101297;29;20103;-79
2024/01/08 08:26:55;;;;;;;7.32;4.10;;;-0.20;68.50;;;;;;4100991;29;20485;-80
2024/01/08 08:29:00;;;;;;;7.95;4.75;;;-0.20;68.00;;;;;;4101247;29;20051;-80
2024/01/08 08:31:02;;;;;;;8.40;4.90;;;-0.20;67.90;;;;;;4101179;29;20280;-77
2024/01/08 08:33:06;;;;;;;9.27;5.43;;;-0.20;67.70;;;;;;4101056;29;20059;-78
2024/01/08 08:35:08;;;;;;;7.55;4.43;;;-0.20;68.20;;;;;;4100933;29;20051;-77
2024/01/08 08:37:10;;;;;;;7.32;4.30;;;-0.20;68.40;;;;;;4100976;29;20047;-80
2024/01/08 08:39:15;;;;;;;7.80;4.05;;;-0.20;67.40;;;;;;4100392;28;20047;-78
2024/01/08 08:41:16;;;;;;;7.20;4.38;;;-0.20;67.10;;;;;;4101008;29;20047;-79
2024/01/08 08:43:18;;;;;;;7.03;4.30;;;-0.20;66.70;;;;;;4100749;29;20106;-81
2024/01/08 08:45:21;;;;;;;8.02;4.05;;;-0.20;66.90;;;;;;4100741;29;20047;-80
2024/01/08 08:47:23;;;;;;;10.50;4.85;;;-0.10;67.20;;;;;;4101088;29;20045;-79
2024/01/08 08:49:25;;;;;;;8.40;4.50;;;-0.10;66.70;;;;;;4100776;29;20453;-80
2024/01/08 08:51:26;;;;;;;10.00;5.38;;;-0.10;66.10;;;;;;4100681;29;20382;-80
2024/01/08 08:53:29;;;;;;;9.25;5.03;;;-0.10;66.00;;;;;;4100707;29;20103;-78
2024/01/08 08:55:31;;;;;;;16.08;7.72;;;-0.10;66.10;;;;;;4100394;29;20485;-80
2024/01/08 08:57:33;;;;;;;7.25;4.75;;;-0.10;66.50;;;;;;4100562;29;20110;-79
2024/01/08 08:59:37;;;;;;;5.63;3.72;;;0.00;66.40;;;;;;4100611;29;20464;-75
2024/01/08 09:01:40;;;;;;;7.95;4.30;;;0.00;66.00;;;;;;4100258;29;20118;-79
2024/01/08 09:03:43;;;;;;;7.03;4.03;;;0.00;65.80;;;;;;4084763;29;20501;-78
2024/01/08 09:05:45;;;;;;;6.75;4.00;;;0.00;66.00;;;;;;4084902;29;20513;-80
2024/01/08 09:07:46;;;;;;;7.80;4.35;;;0.00;65.90;;;;;;4085093;29;20091;-80
2024/01/08 09:09:48;;;;;;;7.80;4.25;;;0.00;65.70;;;;;;4084874;29;20052;-78
2024/01/08 09:11:50;;;;;;;7.35;4.05;;;0.00;66.10;;;;;;4089682;29;20047;-78
2024/01/08 09:13:52;;;;;;;7.05;4.10;;;-0.10;65.50;;;;;;4100952;29;20522;-80
2024/01/08 09:15:54;;;;;;;7.95;3.83;;;-0.10;65.00;;;;;;4100582;29;20493;-77
2024/01/08 09:17:58;;;;;;;7.90;3.92;;;-0.20;65.10;;;;;;4099144;28;20051;-80
2024/01/08 09:19:59;;;;;;;7.40;4.05;;;-0.20;64.80;;;;;;4098440;29;20082;-78
2024/01/08 09:22:01;;;;;;;7.35;4.18;;;-0.10;65.30;;;;;;4098323;29;20051;-78
2024/01/08 09:24:06;;;;;;;7.38;3.90;;;-0.20;65.20;;;;;;4098295;29;20055;-78
2024/01/08 09:26:07;;;;;;;6.10;3.80;;;-0.20;65.50;;;;;;4098403;29;20059;-78
2024/01/08 09:28:09;;;;;;;8.32;4.55;;;-0.20;66.10;;;;;;4098346;29;20055;-77
2024/01/08 09:30:11;;;;;;;11.75;6.13;;;-0.20;66.00;;;;;;4098145;29;20083;-77
2024/01/08 09:32:13;;;;;;;11.27;6.13;;;-0.10;66.00;;;;;;4098190;29;20493;-80
2024/01/08 09:34:17;;;;;;;8.77;5.10;;;-0.20;65.90;;;;;;4098201;29;20099;-80
2024/01/08 09:36:19;;;;;;;8.93;4.70;;;-0.20;66.50;;;;;;4097205;29;20122;-79
2024/01/08 09:38:21;;;;;;;8.95;4.22;;;-0.20;65.70;;;;;;4098996;29;20051;-78
2024/01/08 09:40:22;;;;;;;8.35;4.38;;;-0.20;65.50;;;;;;4098045;29;20412;-79
2024/01/08 09:42:28;;;;;;;6.72;3.90;;;-0.20;65.80;;;;;;4082134;29;20052;-79
2024/01/08 09:44:32;;;;;;;6.53;3.95;;;-0.20;65.40;;;;;;4082488;29;20095;-79
2024/01/08 09:46:43;;;;;;;6.78;3.95;;;-0.20;65.20;;;;;;4082458;29;20047;-79
2024/01/08 09:48:46;;;;;;;6.75;3.90;;;-0.20;65.40;;;;;;4082265;29;20260;-80
2024/01/08 09:50:49;;;;;;;7.70;3.67;;;-0.20;65.40;;;;;;4082941;29;20459;-78
2024/01/08 09:52:51;;;;;;;7.35;3.92;;;-0.20;65.00;;;;;;4096578;29;20051;-78
2024/01/08 09:54:53;;;;;;;7.20;3.85;;;-0.30;64.70;;;;;;4101397;29;20090;-80
2024/01/08 09:56:56;;;;;;;8.63;3.85;;;-0.20;65.20;;;;;;4101569;29;20059;-79
2024/01/08 09:58:58;;;;;;;8.02;3.70;;;-0.20;64.80;;;;;;4101536;29;20047;-79
2024/01/08 10:00:59;;;;;;;8.43;4.00;;;-0.20;65.10;;;;;;4101246;29;20075;-78
2024/01/08 10:03:01;;;;;;;7.28;3.70;;;-0.20;64.70;;;;;;4101414;29;20106;-78
2024/01/08 10:05:04;;;;;;;7.38;3.75;;;-0.20;64.30;;;;;;4101319;29;20102;-79
2024/01/08 10:07:12;;;;;;;6.57;3.55;;;-0.20;63.80;;;;;;4101054;29;20062;-77
2024/01/08 10:09:14;;;;;;;6.75;3.92;;;-0.20;63.80;;;;;;4100950;29;20086;-78
2024/01/08 10:11:16;;;;;;;7.38;3.80;;;-0.20;64.40;;;;;;4101173;29;20074;-78
2024/01/08 10:13:18;;;;;;;8.48;3.92;;;-0.20;64.70;;;;;;4101202;29;20047;-78
2024/01/08 10:15:19;;;;;;;10.15;4.60;;;-0.10;64.80;;;;;;4100957;29;20051;-80
2024/01/08 10:17:21;;;;;;;7.70;3.90;;;-0.20;64.50;;;;;;4100863;29;20134;-79
2024/01/08 10:19:24;;;;;;;8.05;4.32;;;-0.10;64.40;;;;;;4101120;29;20054;-77
2024/01/08 10:21:26;;;;;;;7.22;3.70;;;-0.10;64.30;;;;;;4101088;29;20062;-80
2024/01/08 10:23:28;;;;;;;11.07;6.10;;;-0.10;64.30;;;;;;4101093;29;20114;-76
2024/01/08 10:25:30;;;;;;;11.82;5.68;;;-0.10;63.20;;;;;;4101007;29;20385;-79
2024/01/08 10:27:32;;;;;;;8.93;4.40;;;-0.10;63.30;;;;;;4100589;29;20122;-80
2024/01/08 10:29:34;;;;;;;7.43;4.03;;;-0.20;63.30;;;;;;4100576;29;20103;-78
2024/01/08 10:31:35;;;;;;;7.93;3.95;;;-0.20;64.60;;;;;;4100624;29;20055;-76
2024/01/08 10:33:37;;;;;;;6.57;3.60;;;-0.20;64.50;;;;;;4100627;29;20051;-79
2024/01/08 10:35:41;;;;;;;8.07;3.67;;;-0.10;64.20;;;;;;4098759;29;20055;-78
2024/01/08 10:37:44;;;;;;;7.45;3.90;;;-0.10;63.90;;;;;;4100482;29;20146;-78
2024/01/08 10:39:48;;;;;;;7.40;4.05;;;0.00;64.30;;;;;;4100572;29;20512;-79
2024/01/08 10:41:50;;;;;;;7.97;3.97;;;-0.10;64.00;;;;;;4100443;29;20054;-79
2024/01/08 10:43:52;;;;;;;6.78;3.88;;;-0.10;64.00;;;;;;4101166;29;20047;-76
2024/01/08 10:45:59;;;;;;;7.45;4.22;;;-0.10;63.50;;;;;;4100940;29;20051;-78
2024/01/08 10:48:11;;;;;;;11.63;6.05;;;0.00;63.10;;;;;;4100397;29;20051;-79
2024/01/08 10:50:14;;;;;;;15.45;7.30;;;-0.10;63.40;;;;;;4100410;29;20047;-77
2024/01/08 10:52:25;;;;;;;14.48;6.68;;;0.00;63.80;;;;;;4100333;29;20132;-79
2024/01/08 10:54:40;;;;;;;8.10;4.28;;;0.00;63.70;;;;;;4099706;29;20533;-77
2024/01/08 10:56:45;;;;;;;7.20;3.93;;;0.10;64.20;;;;;;4099694;29;20090;-77
2024/01/08 10:59:02;;;;;;;7.28;4.00;;;0.10;64.20;;;;;;4100456;29;20134;-77
2024/01/08 11:01:06;;;;;;;6.80;3.47;;;0.10;64.50;;;;;;4100191;29;20055;-77
2024/01/08 11:03:09;;;;;;;7.70;3.80;;;0.10;63.10;;;;;;4099225;28;20047;-80
2024/01/08 11:05:13;;;;;;;6.10;3.67;;;0.10;63.20;;;;;;4100550;29;20307;-78
2024/01/08 11:07:17;;;;;;;6.80;3.80;;;0.10;63.40;;;;;;4100252;29;20047;-80
2024/01/08 11:09:26;;;;;;;10.90;5.13;;;0.10;63.60;;;;;;4100370;29;20477;-80
2024/01/08 11:11:28;;;;;;;8.77;4.50;;;0.10;63.60;;;;;;4100773;29;20465;-77
2024/01/08 11:13:32;;;;;;;7.82;4.05;;;0.20;64.60;;;;;;4100297;29;20055;-80
2024/01/08 11:15:34;;;;;;;7.47;4.15;;;0.20;63.60;;;;;;4100083;29;20540;-79
2024/01/08 11:17:35;;;;;;;7.25;4.13;;;0.20;63.60;;;;;;4099894;29;20094;-79
2024/01/08 11:19:45;;;;;;;7.47;3.78;;;0.20;63.90;;;;;;4100141;29;20063;-79
2024/01/08 11:21:50;;;;;;;7.72;4.20;;;0.30;63.40;;;;;;4100220;29;20078;-78
2024/01/08 11:23:52;;;;;;;7.60;3.80;;;0.20;62.90;;;;;;4100269;29;20433;-78
2024/01/08 11:25:54;;;;;;;11.52;6.00;;;0.20;63.30;;;;;;4101877;29;20797;-78
2024/01/08 11:27:58;;;;;;;11.18;5.88;;;0.30;63.60;;;;;;4100162;29;20666;-78
2024/01/08 11:30:01;;;;;;;10.80;5.22;;;0.30;64.30;;;;;;4099744;29;20047;-79
2024/01/08 11:33:03;;;;;;;12.35;6.07;;;0.30;63.50;;;;;;4099659;29;20055;-79
2024/01/08 11:35:10;;;;;;;9.02;5.13;;;0.40;63.90;;;;;;4034950;29;20094;-77
2024/01/08 11:37:32;;;;;;;7.90;4.25;;;0.40;64.50;;;;;;4073266;29;20557;-78
2024/01/08 11:39:40;;;;;;;7.03;4.28;;;0.50;64.50;;;;;;4099794;29;20047;-77
2024/01/08 11:41:42;;;;;;;7.47;4.13;;;0.50;63.70;;;;;;4099749;29;20063;-76
2024/01/08 11:43:44;;;;;;;9.07;4.28;;;0.50;63.60;;;;;;4099826;29;20102;-78
2024/01/08 11:45:48;;;;;;;7.63;4.45;;;0.50;63.70;;;;;;4100151;29;20051;-78
2024/01/08 11:47:49;;;;;;;7.22;3.90;;;0.60;64.80;;;;;;4099597;29;20138;-76
2024/01/08 11:49:51;;;;;;;8.38;4.22;;;0.60;64.60;;;;;;4099729;29;20409;-76
2024/01/08 11:51:57;;;;;;;7.70;4.07;;;0.60;64.10;;;;;;4099521;29;20054;-78
2024/01/08 11:54:06;;;;;;;7.90;4.38;;;0.60;63.30;;;;;;4099297;29;20055;-80
2024/01/08 11:56:08;;;;;;;10.25;5.03;;;0.60;63.30;;;;;;4099644;29;20051;-76
2024/01/08 11:58:10;;;;;;;8.55;4.70;;;0.70;63.50;;;;;;4099376;29;20485;-78
2024/01/08 12:00:14;;;;;;;9.05;4.60;;;0.70;63.70;;;;;;4099482;29;20109;-79
2024/01/08 12:02:19;;;;;;;7.28;4.15;;;0.70;63.80;;;;;;4082211;29;20057;-79
2024/01/08 12:04:20;;;;;;;8.20;4.60;;;0.70;63.10;;;;;;4099671;29;20058;-79
2024/01/08 12:06:22;;;;;;;8.20;3.97;;;0.70;63.10;;;;;;4099296;29;20461;-79
2024/01/08 12:08:29;;;;;;;7.32;4.13;;;0.70;62.90;;;;;;4099557;29;20530;-79
2024/01/08 12:10:31;;;;;;;7.72;4.35;;;0.60;63.00;;;;;;4099477;29;20413;-78
2024/01/08 12:12:33;;;;;;;7.30;4.05;;;0.70;63.10;;;;;;4099194;29;20106;-78
2024/01/08 12:14:35;;;;;;;7.90;4.20;;;0.70;63.30;;;;;;4099363;28;20047;-80
2024/01/08 12:16:37;;;;;;;9.43;4.50;;;0.70;63.30;;;;;;4100519;29;20055;-77
2024/01/08 12:18:43;;;;;;;7.18;4.32;;;0.70;62.80;;;;;;4098918;29;20050;-77
2024/01/08 12:20:45;;;;;;;7.55;4.35;;;0.70;63.00;;;;;;4099030;29;20051;-78
2024/01/08 12:22:47;;;;;;;7.95;4.28;;;0.70;63.30;;;;;;4099142;29;20055;-80
2024/01/08 12:24:51;;;;;;;7.55;4.20;;;0.60;63.40;;;;;;4099428;29;20095;-77
2024/01/08 12:26:53;;;;;;;11.45;5.90;;;0.60;62.90;;;;;;4100920;29;20055;-77
2024/01/08 12:28:54;;;;;;;9.05;4.70;;;0.50;63.10;;;;;;4100529;29;20074;-77
2024/01/08 12:30:58;;;;;;;8.73;4.45;;;0.50;63.40;;;;;;4099034;29;20110;-75
2024/01/08 12:33:01;;;;;;;8.77;4.40;;;0.60;63.80;;;;;;4099261;29;20098;-79
2024/01/08 12:35:04;;;;;;;8.77;4.30;;;0.60;64.10;;;;;;4099302;29;20138;-80
2024/01/08 12:37:08;;;;;;;7.95;4.43;;;0.60;63.90;;;;;;4097155;29;20509;-79
2024/01/08 12:39:09;;;;;;;7.15;4.15;;;0.50;63.70;;;;;;4098766;29;20114;-78
2024/01/08 12:41:11;;;;;;;8.40;4.75;;;0.50;64.80;;;;;;4098861;29;20055;-78
2024/01/08 12:43:13;;;;;;;7.68;4.22;;;0.60;64.90;;;;;;4098670;29;20110;-78
2024/01/08 12:45:16;;;;;;;8.23;4.10;;;0.60;65.20;;;;;;4098891;29;20397;-77
2024/01/08 12:47:17;;;;;;;8.10;4.47;;;0.60;64.30;;;;;;4098837;29;20118;-77
2024/01/08 12:49:19;;;;;;;7.97;4.03;;;0.60;63.80;;;;;;4098945;29;20187;-77
2024/01/08 12:51:22;;;;;;;7.47;4.60;;;0.60;63.90;;;;;;4098851;29;20051;-80
2024/01/08 12:53:25;;;;;;;8.77;4.40;;;0.60;63.90;;;;;;4098891;29;20086;-74
2024/01/08 12:55:27;;;;;;;8.73;4.57;;;0.60;63.70;;;;;;4098779;29;20051;-78
2024/01/08 12:57:28;;;;;;;8.32;4.50;;;0.60;63.20;;;;;;4099175;29;20051;-76
2024/01/08 12:59:32;;;;;;;7.35;4.03;;;0.60;63.60;;;;;;4098530;29;20106;-78
2024/01/08 13:01:33;;;;;;;8.73;4.60;;;0.60;64.00;;;;;;4098997;29;20501;-80
2024/01/08 13:03:35;;;;;;;7.25;4.15;;;0.50;63.50;;;;;;4098838;29;20469;-77
2024/01/08 13:05:38;;;;;;;6.68;3.88;;;0.50;63.60;;;;;;4098449;29;20047;-77
2024/01/08 13:07:41;;;;;;;6.72;4.15;;;0.50;63.80;;;;;;4098380;29;20070;-77
2024/01/08 13:09:43;;;;;;;9.07;4.35;;;0.50;63.70;;;;;;4098364;29;20477;-77
2024/01/08 13:11:45;;;;;;;7.05;4.07;;;0.50;64.00;;;;;;4098291;29;20055;-78
2024/01/08 13:13:48;;;;;;;8.93;4.25;;;0.50;63.90;;;;;;4098818;29;20420;-79
2024/01/08 13:15:49;;;;;;;7.68;4.00;;;0.50;64.20;;;;;;4098302;29;20139;-76
2024/01/08 13:17:51;;;;;;;7.55;3.97;;;0.50;63.90;;;;;;4097985;29;20114;-77
2024/01/08 13:19:52;;;;;;;6.97;4.20;;;0.40;63.90;;;;;;4098690;29;20043;-76
2024/01/08 13:21:54;;;;;;;7.57;3.95;;;0.40;63.50;;;;;;4098370;29;20098;-77
2024/01/08 13:23:57;;;;;;;9.13;4.22;;;0.40;63.30;;;;;;4098239;29;20117;-79
2024/01/08 13:25:59;;;;;;;6.65;4.22;;;0.40;63.40;;;;;;4097794;29;20465;-80
2024/01/08 13:28:01;;;;;;;9.48;4.35;;;0.30;63.10;;;;;;4098440;29;20114;-78
2024/01/08 13:30:03;;;;;;;9.30;4.47;;;0.30;63.40;;;;;;4098141;29;20083;-79
2024/01/08 13:32:07;;;;;;;7.15;3.92;;;0.30;63.00;;;;;;4098442;29;20535;-76
2024/01/08 13:34:09;;;;;;;8.90;4.20;;;0.30;63.30;;;;;;4098295;29;20051;-77
2024/01/08 13:36:11;;;;;;;8.00;4.57;;;0.30;63.10;;;;;;4096306;29;20051;-78
2024/01/08 13:38:12;;;;;;;7.05;3.75;;;0.20;64.20;;;;;;4098171;29;20121;-77
2024/01/08 13:40:15;;;;;;;7.60;4.40;;;0.30;63.90;;;;;;4098147;29;20122;-75
2024/01/08 13:42:17;;;;;;;9.57;4.72;;;0.30;63.80;;;;;;4098001;29;20138;-77
2024/01/08 13:44:19;;;;;;;8.57;4.30;;;0.30;63.80;;;;;;4098079;29;20051;-76
2024/01/08 13:46:20;;;;;;;8.35;4.57;;;0.30;63.80;;;;;;4098235;29;20095;-77
2024/01/08 13:48:23;;;;;;;7.95;4.47;;;0.20;63.60;;;;;;4098859;29;20059;-75
2024/01/08 13:50:28;;;;;;;6.70;3.92;;;0.20;63.40;;;;;;4098231;29;20059;-75
2024/01/08 13:52:30;;;;;;;7.05;4.25;;;0.20;64.60;;;;;;4098325;29;20106;-75
2024/01/08 13:54:32;;;;;;;8.52;4.50;;;0.20;64.20;;;;;;4098656;29;20051;-77
2024/01/08 13:56:35;;;;;;;10.88;6.13;;;0.30;64.50;;;;;;4098042;29;20110;-77
2024/01/08 13:58:37;;;;;;;10.10;5.32;;;0.30;64.00;;;;;;4098137;29;20489;-77
2024/01/08 14:00:39;;;;;;;7.70;4.25;;;0.30;63.90;;;;;;4098145;29;20047;-77
2024/01/08 14:02:41;;;;;;;9.93;4.90;;;0.30;64.00;;;;;;4066862;29;20526;-77
2024/01/08 14:04:43;;;;;;;9.75;4.85;;;0.30;63.90;;;;;;4066862;29;20050;-77
2024/01/08 14:06:44;;;;;;;8.00;4.53;;;0.30;64.20;;;;;;4066530;29;20055;-79
2024/01/08 14:08:46;;;;;;;8.45;4.68;;;0.30;63.90;;;;;;4066718;29;20060;-76
2024/01/08 14:10:48;;;;;;;8.32;4.35;;;0.30;64.60;;;;;;4066462;29;20051;-77
2024/01/08 14:12:51;;;;;;;9.60;4.63;;;0.30;63.50;;;;;;4066837;29;20052;-76
2024/01/08 14:14:52;;;;;;;9.20;4.20;;;0.30;63.80;;;;;;4066350;29;20056;-76
2024/01/08 14:16:54;;;;;;;12.48;6.30;;;0.30;64.00;;;;;;4066323;29;20052;-75
2024/01/08 14:18:56;;;;;;;10.27;5.68;;;0.30;64.10;;;;;;4066086;29;20052;-76
2024/01/08 14:20:58;;;;;;;12.20;6.60;;;0.30;64.20;;;;;;4066487;29;20119;-77
2024/01/08 14:23:01;;;;;;;11.63;4.85;;;0.20;64.10;;;;;;4066544;29;20107;-77
2024/01/08 14:25:03;;;;;;;9.15;4.75;;;0.30;64.30;;;;;;4066417;29;20454;-75
2024/01/08 14:27:06;;;;;;;8.45;4.63;;;0.20;64.40;;;;;;4066712;29;20456;-74
2024/01/08 14:29:09;;;;;;;9.50;5.18;;;0.20;64.30;;;;;;4066473;29;20470;-75
2024/01/08 14:31:11;;;;;;;12.13;5.00;;;0.30;64.70;;;;;;4065904;29;20052;-75
2024/01/08 14:33:13;;;;;;;8.52;4.57;;;0.20;64.70;;;;;;4066265;29;20090;-77
2024/01/08 14:35:15;;;;;;;10.82;5.07;;;0.20;64.90;;;;;;4066085;29;20462;-76
2024/01/08 14:37:17;;;;;;;9.65;5.00;;;0.20;64.60;;;;;;4065491;29;20103;-76
2024/01/08 14:39:19;;;;;;;9.45;5.18;;;0.20;64.80;;;;;;4068996;29;20553;-75
2024/01/08 14:41:21;;;;;;;10.13;5.38;;;0.20;65.10;;;;;;4068926;29;20060;-77
2024/01/08 14:43:23;;;;;;;11.13;4.90;;;0.30;65.20;;;;;;4068957;29;20052;-76
2024/01/08 14:45:26;;;;;;;12.32;5.20;;;0.30;65.60;;;;;;4069036;29;20549;-75
2024/01/08 14:47:28;;;;;;;12.32;5.20;;;0.30;65.20;;;;;;4068933;29;20288;-74
2024/01/08 14:49:30;;;;;;;9.80;5.03;;;0.30;65.30;;;;;;4068995;29;20056;-77
2024/01/08 14:51:32;;;;;;;9.35;5.13;;;0.30;65.10;;;;;;4068881;29;20059;-76
2024/01/08 14:53:35;;;;;;;8.77;4.95;;;0.30;65.10;;;;;;4068856;29;20307;-77
2024/01/08 14:55:36;;;;;;;9.48;5.40;;;0.30;65.30;;;;;;4069327;29;20048;-75
2024/01/08 14:57:38;;;;;;;10.20;5.35;;;0.30;65.40;;;;;;4068772;29;20088;-78
2024/01/08 14:59:40;;;;;;;8.73;5.18;;;0.30;65.10;;;;;;4068728;29;20125;-75
2024/01/08 15:01:42;;;;;;;8.95;5.13;;;0.30;65.50;;;;;;4085036;29;20118;-77
2024/01/08 15:03:45;;;;;;;9.32;5.47;;;0.30;65.60;;;;;;4100184;29;20047;-77
2024/01/08 15:05:47;;;;;;;7.95;5.05;;;0.30;65.40;;;;;;4100146;29;20079;-78
2024/01/08 15:07:49;;;;;;;8.88;5.20;;;0.40;65.90;;;;;;4100365;29;20055;-76
2024/01/08 15:09:51;;;;;;;8.20;4.97;;;0.40;65.70;;;;;;4100837;29;20047;-77
2024/01/08 15:11:53;;;;;;;9.45;5.28;;;0.40;65.90;;;;;;4102421;29;20110;-79
2024/01/08 15:13:56;;;;;;;9.23;5.10;;;0.30;65.90;;;;;;4101501;29;20055;-78
2024/01/08 15:15:58;;;;;;;9.00;5.10;;;0.30;66.00;;;;;;4100394;29;20055;-79
2024/01/08 15:18:02;;;;;;;8.38;5.32;;;0.30;66.00;;;;;;4100022;29;20110;-79
2024/01/08 15:20:06;;;;;;;10.20;5.43;;;0.30;66.00;;;;;;4100108;29;20126;-80
2024/01/08 15:22:08;;;;;;;10.23;5.85;;;0.30;66.30;;;;;;4099427;29;20134;-80
2024/01/08 15:24:12;;;;;;;10.48;6.28;;;0.20;66.10;;;;;;4099696;29;20520;-77
2024/01/08 15:26:14;;;;;;;10.73;5.72;;;0.20;66.10;;;;;;4099759;29;20574;-78
2024/01/08 15:28:17;;;;;;;9.23;5.18;;;0.20;66.30;;;;;;4101953;29;20489;-78
2024/01/08 15:30:19;;;;;;;11.60;5.88;;;0.20;66.20;;;;;;4100427;29;20073;-79
2024/01/08 15:32:22;;;;;;;11.13;5.22;;;0.20;66.70;;;;;;4099787;29;20051;-78
2024/01/08 15:34:25;;;;;;;10.50;5.60;;;0.20;67.10;;;;;;4099889;29;20143;-79
2024/01/08 15:36:27;;;;;;;10.60;5.97;;;0.20;66.70;;;;;;4097806;29;20047;-77
2024/01/08 15:38:29;;;;;;;10.75;6.13;;;0.10;66.90;;;;;;4099559;29;20059;-77
2024/01/08 15:40:31;;;;;;;11.23;5.68;;;0.10;67.40;;;;;;4100405;29;20050;-77
2024/01/08 15:42:33;;;;;;;11.10;6.00;;;0.10;67.20;;;;;;4099933;29;20078;-78
2024/01/08 15:44:34;;;;;;;10.52;5.65;;;0.10;67.40;;;;;;4099897;29;20047;-78
2024/01/08 15:46:38;;;;;;;12.05;6.03;;;0.10;68.30;;;;;;4099879;29;20101;-79
2024/01/08 15:48:40;;;;;;;11.10;6.18;;;0.10;67.90;;;;;;4099486;28;20106;-78
2024/01/08 15:50:45;;;;;;;13.05;7.05;;;0.10;67.90;;;;;;4099763;29;20453;-79
2024/01/08 15:52:46;;;;;;;14.07;6.63;;;0.10;67.70;;;;;;4099548;29;20464;-79
2024/01/08 15:54:47;;;;;;;12.75;6.25;;;0.10;67.80;;;;;;4099408;29;20055;-79
2024/01/08 15:56:49;;;;;;;11.00;5.85;;;0.10;67.70;;;;;;4099415;29;20559;-79
2024/01/08 15:58:50;;;;;;;10.35;5.88;;;0.10;67.90;;;;;;4083999;29;20048;-78
2024/01/08 16:00:52;;;;;;;12.88;6.53;;;0.10;67.80;;;;;;4092354;29;20102;-77
2024/01/08 16:02:53;;;;;;;11.40;6.28;;;0.10;67.50;;;;;;4099496;29;20114;-79
2024/01/08 16:04:55;;;;;;;10.48;6.13;;;0.10;67.80;;;;;;4099296;29;20059;-79
2024/01/08 16:06:58;;;;;;;11.48;6.07;;;0.10;67.80;;;;;;4099168;29;20055;-80
2024/01/08 16:09:01;;;;;;;10.00;5.60;;;0.10;67.90;;;;;;4099071;29;20058;-79
2024/01/08 16:11:02;;;;;;;11.20;6.22;;;0.10;68.00;;;;;;4099124;29;20059;-77
2024/01/08 16:13:04;;;;;;;12.18;6.32;;;0.10;68.10;;;;;;4099299;29;20106;-76
2024/01/08 16:15:07;;;;;;;12.10;6.25;;;0.10;68.30;;;;;;4099312;29;20357;-77
2024/01/08 16:17:09;;;;;;;11.23;6.32;;;0.10;68.10;;;;;;4098923;29;20469;-79
2024/01/08 16:19:11;;;;;;;10.07;6.03;;;0.10;68.30;;;;;;4097979;29;20489;-76
2024/01/08 16:21:13;;;;;;;13.90;7.05;;;0.10;68.20;;;;;;4098622;29;20111;-77
2024/01/08 16:23:16;;;;;;;11.75;6.18;;;0.10;68.10;;;;;;4099089;29;20462;-77
2024/01/08 16:25:17;;;;;;;10.88;6.22;;;0.10;68.10;;;;;;4098880;29;20050;-78
2024/01/08 16:27:19;;;;;;;12.10;6.85;;;0.10;67.70;;;;;;4099110;29;20059;-76
2024/01/08 16:29:21;;;;;;;14.63;6.78;;;0.10;68.00;;;;;;4099000;29;20397;-79
2024/01/08 16:31:22;;;;;;;12.45;5.93;;;0.00;67.50;;;;;;4099001;29;20106;-80
2024/01/08 16:33:24;;;;;;;12.82;6.38;;;0.00;67.60;;;;;;4099032;29;20055;-78
2024/01/08 16:35:26;;;;;;;13.75;6.25;;;0.00;67.80;;;;;;4099129;29;20071;-77
2024/01/08 16:37:26;;;;;;;12.00;6.47;;;0.00;67.90;;;;;;4097475;29;20461;-78
2024/01/08 16:39:30;;;;;;;10.48;6.13;;;0.00;68.20;;;;;;4098953;29;20047;-80
2024/01/08 16:41:33;;;;;;;11.48;6.95;;;0.00;67.80;;;;;;4098908;29;20552;-78
2024/01/08 16:43:35;;;;;;;11.77;6.95;;;0.00;67.60;;;;;;4098955;29;20050;-79